Time;durP1;ratioP1;P1;durP2;ratioP2;P2;SDS_P1;SDS_P2;PMS_P1;PMS_P2;Temp;Humidity;BMP_temperature;BMP_pressure;BME280_temperature;BME280_humidity;BME280_pressure;Samples;Min_cycle;Max_cycle;Signal;HPM_P1;HPM_P2
2023/04/17 00:01:36;;;;;;;21.25;17.35;;;;;;;6.90;100.00;102473.38;4998353;28;20205;-42
2023/04/17 00:04:02;;;;;;;21.08;15.82;;;;;;;6.88;100.00;102475.13;5003578;28;20218;-42
2023/04/17 00:06:28;;;;;;;17.17;14.70;;;;;;;6.95;100.00;102484.94;5001786;28;20559;-39
2023/04/17 00:08:54;;;;;;;23.98;17.65;;;;;;;6.87;100.00;102482.25;5000325;28;20295;-42
2023/04/17 00:11:20;;;;;;;16.65;14.90;;;;;;;6.91;100.00;102480.47;4994246;28;20277;-41
2023/04/17 00:13:46;;;;;;;18.80;16.80;;;;;;;6.79;100.00;102473.34;5002039;28;20601;-43
2023/04/17 00:16:12;;;;;;;17.77;15.93;;;;;;;6.79;100.00;102476.88;5001641;28;20243;-43
2023/04/17 00:18:41;;;;;;;18.40;16.52;;;;;;;6.80;100.00;102485.78;5001141;28;20499;-45
2023/04/17 00:21:06;;;;;;;22.42;19.02;;;;;;;6.76;100.00;102474.22;5005636;28;20201;-42
2023/04/17 00:23:32;;;;;;;18.35;16.45;;;;;;;6.83;100.00;102474.25;5001966;28;20176;-42
2023/04/17 00:25:57;;;;;;;23.40;18.88;;;;;;;6.69;100.00;102476.81;4989187;28;20204;-42
2023/04/17 00:28:23;;;;;;;22.60;18.42;;;;;;;6.60;100.00;102478.59;5003718;28;20199;-42
2023/04/17 00:30:48;;;;;;;19.23;17.13;;;;;;;6.69;100.00;102484.81;5003115;28;20198;-43
2023/04/17 00:33:14;;;;;;;20.50;17.48;;;;;;;6.72;100.00;102485.75;4998828;28;20208;-44
2023/04/17 00:35:40;;;;;;;19.58;17.25;;;;;;;6.66;100.00;102479.50;4997497;28;20646;-43
2023/04/17 00:38:07;;;;;;;20.98;16.55;;;;;;;6.66;100.00;102468.84;4998059;28;20291;-42
2023/04/17 00:40:34;;;;;;;18.08;16.17;;;;;;;6.68;100.00;102473.28;5006916;28;20200;-40
2023/04/17 00:43:00;;;;;;;18.95;16.25;;;;;;;6.67;100.00;102471.53;5017906;28;20303;-41
2023/04/17 00:45:26;;;;;;;19.65;16.15;;;;;;;6.63;100.00;102471.50;5000207;28;20644;-41
2023/04/17 00:47:52;;;;;;;17.20;15.32;;;;;;;6.67;100.00;102476.84;5001945;28;20192;-40
2023/04/17 00:50:18;;;;;;;18.40;15.20;;;;;;;6.67;100.00;102468.84;4993661;28;20201;-42
2023/04/17 00:52:45;;;;;;;16.45;14.73;;;;;;;6.65;100.00;102472.38;5004122;28;20199;-40
2023/04/17 00:55:11;;;;;;;20.23;17.23;;;;;;;6.49;100.00;102477.63;5002645;28;20635;-42
2023/04/17 00:57:37;;;;;;;17.50;15.70;;;;;;;6.57;100.00;102480.34;4998445;28;20177;-43
2023/04/17 01:00:03;;;;;;;20.55;17.75;;;;;;;6.43;100.00;102466.97;4996263;28;20205;-44
2023/04/17 01:02:30;;;;;;;21.80;18.10;;;;;;;6.38;100.00;102476.69;4995681;28;20279;-40
2023/04/17 01:04:56;;;;;;;19.80;16.33;;;;;;;6.44;100.00;102473.19;5001171;28;20272;-41
2023/04/17 01:07:21;;;;;;;18.02;16.15;;;;;;;6.48;100.00;102475.84;4997089;28;20263;-42
2023/04/17 01:09:47;;;;;;;21.90;18.80;;;;;;;6.49;100.00;102482.94;4997355;28;20197;-41
2023/04/17 01:12:15;;;;;;;23.15;18.45;;;;;;;6.49;100.00;102477.63;5006466;28;20244;-42
2023/04/17 01:14:41;;;;;;;20.48;17.48;;;;;;;6.52;100.00;102482.97;5000810;28;20181;-43
2023/04/17 01:17:06;;;;;;;22.92;19.70;;;;;;;6.38;100.00;102471.34;4996419;28;20195;-42
2023/04/17 01:19:32;;;;;;;21.33;18.33;;;;;;;6.49;100.00;102471.41;5002143;28;20251;-41
2023/04/17 01:21:58;;;;;;;30.10;18.67;;;;;;;6.50;100.00;102479.41;4997566;28;20559;-43
2023/04/17 01:24:23;;;;;;;20.95;18.75;;;;;;;6.42;100.00;102488.25;4998795;28;20219;-42
2023/04/17 01:26:49;;;;;;;22.02;19.60;;;;;;;6.46;100.00;102482.94;4996885;28;20185;-41
2023/04/17 01:29:15;;;;;;;23.98;18.40;;;;;;;6.43;100.00;102490.94;5004112;28;20212;-39
2023/04/17 01:31:41;;;;;;;19.67;17.50;;;;;;;6.46;100.00;102488.28;5002190;28;20187;-42
2023/04/17 01:34:07;;;;;;;21.73;17.38;;;;;;;6.43;100.00;102484.69;5001857;28;20561;-41
2023/04/17 01:36:32;;;;;;;21.00;18.20;;;;;;;6.34;100.00;102493.50;5011988;28;20187;-43
2023/04/17 01:38:58;;;;;;;18.42;16.52;;;;;;;6.38;100.00;102490.00;5006611;28;20205;-43
2023/04/17 01:41:23;;;;;;;21.98;17.17;;;;;;;6.38;100.00;102500.63;5008202;28;20307;-42
2023/04/17 01:43:49;;;;;;;17.92;15.93;;;;;;;6.39;100.00;102489.13;5005925;28;20185;-41
2023/04/17 01:46:15;;;;;;;19.30;17.02;;;;;;;6.35;100.00;102489.97;5003811;28;20188;-44
2023/04/17 01:48:40;;;;;;;21.30;17.63;;;;;;;6.33;100.00;102495.28;5006225;28;20205;-41
2023/04/17 01:51:06;;;;;;;23.25;19.55;;;;;;;6.29;100.00;102496.16;5010109;28;20223;-41
2023/04/17 01:53:32;;;;;;;21.75;17.85;;;;;;;6.26;100.00;102492.59;5007910;28;20617;-43
2023/04/17 01:56:00;;;;;;;19.27;17.20;;;;;;;6.30;100.00;102497.94;5003401;28;20189;-43
2023/04/17 01:58:26;;;;;;;21.75;18.33;;;;;;;6.22;100.00;102498.78;5008396;28;20684;-42
2023/04/17 02:00:52;;;;;;;18.70;16.63;;;;;;;6.25;100.00;102506.75;5007394;28;20299;-43
2023/04/17 02:03:17;;;;;;;18.77;16.00;;;;;;;6.25;100.00;102501.44;5002423;28;20232;-42
2023/04/17 02:05:46;;;;;;;25.40;21.00;;;;;;;6.10;100.00;102505.78;5010566;28;20272;-43
2023/04/17 02:08:13;;;;;;;23.77;19.50;;;;;;;6.11;100.00;102506.69;5001029;28;20252;-41
2023/04/17 02:10:40;;;;;;;22.85;18.83;;;;;;;6.09;100.00;102501.34;5006075;28;20677;-39
2023/04/17 02:13:05;;;;;;;20.42;18.08;;;;;;;6.18;100.00;102508.50;5004193;28;20604;-41
2023/04/17 02:15:31;;;;;;;24.65;19.40;;;;;;;6.07;100.00;102510.19;4997608;28;20181;-42
2023/04/17 02:17:56;;;;;;;23.38;18.75;;;;;;;6.11;100.00;102504.91;5009412;28;20311;-41
2023/04/17 02:20:22;;;;;;;24.98;19.65;;;;;;;6.06;100.00;102504.00;5009680;28;20584;-44
2023/04/17 02:22:47;;;;;;;21.27;17.17;;;;;;;6.10;100.00;102503.13;5008641;28;20196;-43
2023/04/17 02:25:13;;;;;;;24.85;20.67;;;;;;;6.08;100.00;102507.56;5006326;28;20193;-41
2023/04/17 02:27:38;;;;;;;24.33;20.48;;;;;;;5.98;100.00;102495.06;4999060;28;20174;-41
2023/04/17 02:30:07;;;;;;;23.70;19.52;;;;;;;6.05;100.00;102503.97;4999921;28;20205;-46
2023/04/17 02:32:32;;;;;;;21.95;19.13;;;;;;;5.99;100.00;102504.81;4999691;28;20503;-42
2023/04/17 02:34:58;;;;;;;23.92;20.30;;;;;;;5.95;100.00;102500.38;5007141;28;20180;-45
2023/04/17 02:37:23;;;;;;;26.90;20.63;;;;;;;5.95;100.00;102506.56;4999560;28;20196;-45
2023/04/17 02:39:52;;;;;;;26.42;19.90;;;;;;;6.00;100.00;102506.59;5001026;28;20707;-43
2023/04/17 02:42:17;;;;;;;23.08;19.27;;;;;;;6.04;100.00;102507.53;5003340;28;20664;-42
2023/04/17 02:44:45;;;;;;;22.95;19.75;;;;;;;6.09;100.00;102500.47;5001196;28;20216;-44
2023/04/17 02:47:11;;;;;;;24.55;19.85;;;;;;;6.01;100.00;102504.81;5009417;28;20177;-43
2023/04/17 02:49:36;;;;;;;25.98;19.67;;;;;;;6.08;100.00;102511.97;5007962;28;20205;-43
2023/04/17 02:52:02;;;;;;;26.10;19.33;;;;;;;6.08;100.00;102509.31;5010477;28;20208;-43
2023/04/17 02:54:28;;;;;;;23.65;19.85;;;;;;;6.09;100.00;102509.31;4999447;28;20244;-42
2023/04/17 02:56:57;;;;;;;21.63;18.15;;;;;;;6.19;100.00;102504.97;5003663;28;20260;-42
2023/04/17 02:59:25;;;;;;;21.00;18.27;;;;;;;6.13;100.00;102511.13;5008977;28;20273;-41
2023/04/17 03:01:50;;;;;;;25.67;20.95;;;;;;;6.10;100.00;102519.09;5008008;28;20299;-45
2023/04/17 03:04:17;;;;;;;23.73;18.65;;;;;;;6.10;100.00;102511.13;5003992;28;20241;-42
2023/04/17 03:06:43;;;;;;;20.95;18.33;;;;;;;6.15;100.00;102506.72;4999904;28;20521;-41
2023/04/17 03:09:11;;;;;;;24.58;19.73;;;;;;;6.13;100.00;102515.56;5000195;28;20701;-42
2023/04/17 03:11:37;;;;;;;26.23;20.05;;;;;;;6.20;100.00;102525.38;4995635;28;20181;-42
2023/04/17 03:14:03;;;;;;;22.30;18.85;;;;;;;6.18;100.00;102516.47;5007025;28;20189;-40
2023/04/17 03:16:28;;;;;;;26.38;20.60;;;;;;;6.20;100.00;102512.06;5009313;28;20651;-41
2023/04/17 03:18:57;;;;;;;24.33;19.60;;;;;;;6.22;100.00;102520.94;5045836;23;20291;-50
2023/04/17 03:21:22;;;;;;;20.02;17.73;;;;;;;6.24;100.00;102516.53;5020106;28;20210;-49
2023/04/17 03:23:48;;;;;;;23.45;19.65;;;;;;;6.15;100.00;102522.69;5012074;28;20177;-51
2023/04/17 03:26:15;;;;;;;25.90;20.75;;;;;;;6.14;100.00;102515.59;5016460;28;20629;-52
2023/04/17 03:28:41;;;;;;;23.88;20.17;;;;;;;6.11;100.00;102514.66;5022481;28;20206;-46
2023/04/17 03:31:06;;;;;;;30.40;21.42;;;;;;;6.14;100.00;102518.25;5010267;28;20179;-49
2023/04/17 03:33:34;;;;;;;28.48;20.75;;;;;;;6.12;100.00;102522.66;5010549;28;20238;-51
2023/04/17 03:35:59;;;;;;;26.00;21.17;;;;;;;6.16;100.00;102526.22;5027285;28;20192;-47
2023/04/17 03:38:24;;;;;;;29.17;21.85;;;;;;;6.16;100.00;102508.47;5020307;28;20283;-48
2023/04/17 03:40:51;;;;;;;24.27;20.70;;;;;;;6.13;100.00;102511.13;5015790;28;20228;-43
2023/04/17 03:43:17;;;;;;;29.70;21.77;;;;;;;6.11;100.00;102512.88;5026991;28;20180;-45
2023/04/17 03:45:44;;;;;;;26.92;20.50;;;;;;;6.10;100.00;102513.78;5011166;28;20492;-45
2023/04/17 03:48:10;;;;;;;24.83;21.90;;;;;;;6.11;100.00;102515.56;5011290;28;20197;-44
2023/04/17 03:50:36;;;;;;;24.27;20.33;;;;;;;6.10;100.00;102511.13;5010438;28;20173;-44
2023/04/17 03:53:02;;;;;;;28.23;22.13;;;;;;;6.08;100.00;102515.53;5027410;28;20187;-44
2023/04/17 03:55:29;;;;;;;28.52;21.05;;;;;;;6.09;100.00;102519.09;5019382;28;20184;-43
2023/04/17 03:57:55;;;;;;;27.88;21.30;;;;;;;6.09;100.00;102514.66;5029808;28;20172;-44
2023/04/17 04:00:22;;;;;;;25.67;20.23;;;;;;;6.12;100.00;102514.69;5031754;28;20168;-44
2023/04/17 04:02:52;;;;;;;27.63;19.98;;;;;;;6.13;100.00;102526.22;5030050;28;20180;-45
2023/04/17 04:05:22;;;;;;;29.45;20.33;;;;;;;6.09;100.00;102522.63;5027017;28;20224;-48
2023/04/17 04:07:48;;;;;;;27.27;21.10;;;;;;;6.05;100.00;102520.81;5019229;28;20314;-47
2023/04/17 04:10:21;;;;;;;26.52;20.65;;;;;;;6.01;100.00;102526.09;5019764;28;20180;-47
2023/04/17 04:12:47;;;;;;;26.92;21.38;;;;;;;6.07;100.00;102527.03;5021774;28;20330;-49
2023/04/17 04:15:13;;;;;;;30.65;22.27;;;;;;;6.08;100.00;102522.59;5026844;28;20232;-48
2023/04/17 04:17:40;;;;;;;29.40;21.15;;;;;;;6.07;100.00;102512.84;5016367;28;20199;-44
2023/04/17 04:20:07;;;;;;;31.10;21.38;;;;;;;6.12;100.00;102525.34;5009761;28;20222;-45
2023/04/17 04:22:34;;;;;;;34.20;23.00;;;;;;;6.10;100.00;102534.16;5009441;28;20280;-45
2023/04/17 04:25:01;;;;;;;27.75;21.48;;;;;;;6.10;100.00;102527.09;5009719;28;20184;-48
2023/04/17 04:27:44;;;;;;;25.95;21.67;;;;;;;6.09;100.00;102532.38;5009545;28;20529;-45
2023/04/17 04:30:11;;;;;;;27.20;21.35;;;;;;;6.13;100.00;102535.09;5026114;28;20204;-45
2023/04/17 04:32:44;;;;;;;23.80;20.48;;;;;;;6.14;100.00;102539.53;5009664;28;20476;-44
2023/04/17 04:35:14;;;;;;;30.20;22.08;;;;;;;6.13;100.00;102555.50;5009364;28;20343;-45
2023/04/17 04:37:41;;;;;;;28.13;21.80;;;;;;;6.17;100.00;102546.66;5009632;28;20230;-45
2023/04/17 04:40:09;;;;;;;29.05;21.48;;;;;;;6.22;100.00;102544.91;5008861;28;20287;-45
2023/04/17 04:42:59;;;;;;;27.98;21.60;;;;;;;6.17;100.00;102542.22;5009563;28;20307;-47
2023/04/17 04:45:29;;;;;;;27.40;20.55;;;;;;;6.17;100.00;102542.22;5009520;28;20223;-47
2023/04/17 04:47:56;;;;;;;29.45;20.95;;;;;;;6.26;100.00;102549.38;5028646;28;20247;-45
2023/04/17 04:50:22;;;;;;;26.70;21.13;;;;;;;6.24;100.00;102559.13;5028888;28;20777;-43
2023/04/17 04:52:48;;;;;;;26.30;19.98;;;;;;;6.25;100.00;102552.00;5028625;28;20264;-47
2023/04/17 04:55:29;;;;;;;26.33;20.52;;;;;;;6.23;100.00;102565.34;5029142;28;20218;-44
2023/04/17 04:57:56;;;;;;;25.88;21.35;;;;;;;6.23;100.00;102569.75;5029010;28;20172;-44
2023/04/17 05:00:22;;;;;;;25.63;20.25;;;;;;;6.25;100.00;102560.88;5028703;28;20172;-43
2023/04/17 05:02:52;;;;;;;29.98;22.67;;;;;;;6.32;100.00;102559.16;5028261;28;20282;-44
2023/04/17 05:05:21;;;;;;;29.67;22.50;;;;;;;6.28;100.00;102568.91;5028716;28;20223;-46
2023/04/17 05:07:46;;;;;;;28.27;21.83;;;;;;;6.31;100.00;102576.03;5030096;28;20219;-48
2023/04/17 05:10:13;;;;;;;26.70;20.75;;;;;;;6.32;100.00;102570.72;5012461;28;20192;-45
2023/04/17 05:12:44;;;;;;;28.80;22.15;;;;;;;6.33;100.00;102575.16;5028566;28;20541;-48
2023/04/17 05:15:12;;;;;;;25.20;21.08;;;;;;;6.34;100.00;102584.03;5033031;28;20191;-44
2023/04/17 05:17:38;;;;;;;25.60;20.65;;;;;;;6.43;100.00;102586.78;5029114;28;20187;-44
2023/04/17 05:20:14;;;;;;;26.02;20.77;;;;;;;6.38;100.00;102584.09;5028580;28;20547;-43
2023/04/17 05:22:48;;;;;;;27.25;20.60;;;;;;;6.30;100.00;102592.88;5029229;28;20214;-45
2023/04/17 05:25:15;;;;;;;29.88;21.20;;;;;;;6.31;100.00;102594.66;5028783;28;20183;-44
2023/04/17 05:27:42;;;;;;;25.50;21.42;;;;;;;6.33;100.00;102585.81;5029088;28;20176;-48
2023/04/17 05:30:09;;;;;;;26.83;21.50;;;;;;;6.37;100.00;102600.03;5028900;28;20232;-48
2023/04/17 05:32:35;;;;;;;25.75;20.92;;;;;;;6.49;100.00;102605.44;5023235;28;20768;-49
2023/04/17 05:35:19;;;;;;;24.48;20.73;;;;;;;6.72;100.00;102600.28;5011411;28;20230;-47
2023/04/17 05:37:44;;;;;;;28.67;21.30;;;;;;;6.71;100.00;102603.84;5024660;28;20223;-49
2023/04/17 05:40:10;;;;;;;30.58;21.02;;;;;;;6.59;100.00;102604.63;5016602;28;20606;-49
2023/04/17 05:42:36;;;;;;;30.40;20.95;;;;;;;6.60;100.00;102598.44;5015802;28;20205;-49
2023/04/17 05:45:02;;;;;;;24.02;21.33;;;;;;;6.59;100.00;102609.06;5026453;28;20183;-47
2023/04/17 05:47:28;;;;;;;29.20;21.00;;;;;;;6.55;100.00;102610.81;5021811;28;20230;-48
2023/04/17 05:49:56;;;;;;;28.50;21.90;;;;;;;6.56;100.00;102611.72;5025379;28;20226;-46
2023/04/17 05:52:25;;;;;;;28.23;21.83;;;;;;;6.56;100.00;102611.72;5024330;28;20522;-45
2023/04/17 05:54:51;;;;;;;27.02;21.77;;;;;;;6.60;100.00;102613.50;5026255;28;20215;-47
2023/04/17 05:57:18;;;;;;;26.38;21.58;;;;;;;6.64;100.00;102615.31;5017788;28;20259;-45
2023/04/17 05:59:46;;;;;;;25.58;22.25;;;;;;;6.69;100.00;102623.31;5018402;28;20215;-45
2023/04/17 06:02:12;;;;;;;27.38;22.00;;;;;;;6.65;100.00;102619.78;5017270;28;20208;-46
2023/04/17 06:04:38;;;;;;;26.83;21.55;;;;;;;6.73;100.00;102618.03;5024928;28;20193;-47
2023/04/17 06:07:05;;;;;;;29.52;20.23;;;;;;;7.17;100.00;102612.06;5019397;28;20200;-48
2023/04/17 06:09:32;;;;;;;28.00;22.13;;;;;;;7.37;100.00;102605.94;5019276;28;20221;-46
2023/04/17 06:11:58;;;;;;;23.77;19.25;;;;;;;7.59;100.00;102609.56;5025150;28;20207;-47
2023/04/17 06:14:26;;;;;;;22.23;19.63;;;;;;;7.78;100.00;102611.38;5011310;28;20212;-48
2023/04/17 06:16:51;;;;;;;21.85;18.13;;;;;;;7.88;100.00;102611.41;5016474;28;20279;-47
2023/04/17 06:19:17;;;;;;;21.20;18.15;;;;;;;8.09;100.00;102613.19;5021692;28;20303;-47
2023/04/17 06:21:44;;;;;;;20.40;17.50;;;;;;;8.13;100.00;102617.66;5023635;28;20284;-46
2023/04/17 06:24:09;;;;;;;20.83;17.08;;;;;;;8.24;100.00;102615.88;5018280;28;20180;-45
2023/04/17 06:26:41;;;;;;;23.30;17.55;;;;;;;8.27;100.00;102615.00;5022061;28;20188;-47
2023/04/17 06:29:07;;;;;;;19.33;17.23;;;;;;;8.43;100.00;102609.66;5022950;28;20254;-47
2023/04/17 06:31:33;;;;;;;18.02;15.38;;;;;;;8.37;100.00;102617.63;5029437;28;20180;-47
2023/04/17 06:33:59;;;;;;;19.17;16.08;;;;;;;8.44;100.00;102608.78;5029066;28;20196;-49
2023/04/17 06:36:28;;;;;;;20.52;15.88;;;;;;;8.62;100.00;102605.19;5030641;28;20244;-49
2023/04/17 06:38:56;;;;;;;16.85;15.07;;;;;;;8.61;100.00;102616.75;5027717;28;20200;-47
2023/04/17 06:41:21;;;;;;;22.73;14.85;;;;;;;8.63;100.00;102609.63;5032649;28;20696;-46
2023/04/17 06:43:47;;;;;;;22.27;15.55;;;;;;;8.82;100.00;102609.63;5021704;28;20184;-43
2023/04/17 06:46:13;;;;;;;20.10;14.70;;;;;;;8.82;100.00;102612.28;5029971;28;20184;-45
2023/04/17 06:48:39;;;;;;;21.27;15.20;;;;;;;8.92;100.00;102610.47;5022365;28;20217;-42
2023/04/17 06:51:05;;;;;;;18.27;15.77;;;;;;;8.89;100.00;102613.16;5021617;28;20184;-43
2023/04/17 06:53:30;;;;;;;18.00;14.32;;;;;;;8.77;100.00;102616.78;5015409;28;20194;-43
2023/04/17 06:55:56;;;;;;;16.35;14.50;;;;;;;9.01;100.00;102616.69;5019037;28;20244;-43
2023/04/17 06:58:21;;;;;;;18.42;14.38;;;;;;;8.98;100.00;102624.72;5022078;28;20674;-44
2023/04/17 07:00:47;;;;;;;15.30;13.32;;;;;;;9.09;100.00;102627.34;5023447;28;20173;-44
2023/04/17 07:03:13;;;;;;;15.10;12.70;;;;;;;9.76;100.00;102628.84;5020362;28;20187;-41
2023/04/17 07:05:39;;;;;;;14.20;11.60;;;;;;;9.67;100.00;102629.78;5018270;28;20207;-44
2023/04/17 07:08:04;;;;;;;14.73;11.35;;;;;;;9.41;100.00;102631.72;5016793;28;20599;-42
2023/04/17 07:10:30;;;;;;;13.80;11.73;;;;;;;9.59;100.00;102625.38;5020499;28;20177;-43
2023/04/17 07:12:56;;;;;;;13.73;10.57;;;;;;;9.81;100.00;102610.06;5018904;28;20188;-43
2023/04/17 07:15:21;;;;;;;14.43;10.68;;;;;;;9.40;100.00;102616.53;5023734;28;20185;-45
2023/04/17 07:17:47;;;;;;;12.82;10.77;;;;;;;9.96;100.00;102614.44;5019861;28;20529;-44
2023/04/17 07:20:13;;;;;;;14.07;11.35;;;;;;;10.16;100.00;102622.31;5016459;28;20221;-43
2023/04/17 07:22:38;;;;;;;12.20;10.75;;;;;;;10.07;100.00;102615.25;5020140;28;20216;-42
2023/04/17 07:25:05;;;;;;;11.55;10.32;;;;;;;10.25;100.00;102612.41;5020088;28;20195;-45
2023/04/17 07:27:30;;;;;;;12.25;10.38;;;;;;;10.56;99.40;102620.25;5018363;28;20597;-45
2023/04/17 07:29:56;;;;;;;11.95;10.73;;;;;;;10.91;98.25;102617.19;5021410;28;20193;-44
2023/04/17 07:32:25;;;;;;;13.25;10.75;;;;;;;11.20;95.87;102610.59;5017726;28;20195;-46
2023/04/17 07:34:51;;;;;;;13.18;10.70;;;;;;;10.64;94.87;102609.44;5019360;28;20718;-46
2023/04/17 07:37:17;;;;;;;14.60;12.55;;;;;;;9.97;94.68;102617.13;5019637;28;20606;-45
2023/04/17 07:39:43;;;;;;;12.82;10.85;;;;;;;10.20;94.81;102619.59;5016131;28;20219;-46
2023/04/17 07:42:10;;;;;;;20.17;12.40;;;;;;;10.49;95.05;102621.19;5019421;28;20654;-45
2023/04/17 07:44:37;;;;;;;13.57;11.85;;;;;;;10.51;94.24;102630.97;5031124;28;20184;-46
2023/04/17 07:47:03;;;;;;;15.38;11.35;;;;;;;10.97;93.62;102628.75;5017860;28;20177;-45
2023/04/17 07:49:29;;;;;;;18.17;11.55;;;;;;;10.61;92.33;102622.88;5019902;28;20248;-44
2023/04/17 07:51:54;;;;;;;14.27;10.85;;;;;;;10.73;92.54;102630.78;5021735;28;20179;-45
2023/04/17 07:54:20;;;;;;;14.18;11.13;;;;;;;11.38;90.96;102628.25;5017613;28;20637;-47
2023/04/17 07:56:46;;;;;;;15.30;10.57;;;;;;;10.63;89.24;102619.28;5019693;28;20180;-45
2023/04/17 07:59:12;;;;;;;12.63;11.10;;;;;;;11.48;87.89;102626.38;5026642;28;20685;-45
2023/04/17 08:01:37;;;;;;;13.18;10.98;;;;;;;10.96;86.79;102619.81;5018584;28;20686;-44
2023/04/17 08:04:03;;;;;;;14.40;10.90;;;;;;;11.30;86.27;102620.31;5021489;28;20180;-44
2023/04/17 08:06:29;;;;;;;15.00;11.48;;;;;;;10.69;85.89;102616.53;5025882;28;20181;-45
2023/04/17 08:08:55;;;;;;;20.30;11.32;;;;;;;11.26;85.70;102612.31;5023735;28;20211;-43
2023/04/17 08:11:21;;;;;;;16.13;11.98;;;;;;;10.66;86.33;102618.34;5027833;28;20172;-44
2023/04/17 08:13:46;;;;;;;15.40;11.85;;;;;;;11.12;87.85;102617.84;5011057;28;20518;-43
2023/04/17 08:16:12;;;;;;;17.77;12.98;;;;;;;11.21;87.91;102622.22;5010923;28;20164;-44
2023/04/17 08:18:38;;;;;;;16.40;12.80;;;;;;;11.43;87.40;102620.16;5021734;28;20203;-44
2023/04/17 08:21:04;;;;;;;14.98;12.45;;;;;;;12.07;86.72;102616.59;5017265;28;20203;-42
2023/04/17 08:23:29;;;;;;;13.57;11.57;;;;;;;11.95;84.93;102623.00;5010868;28;20189;-43
2023/04/17 08:25:55;;;;;;;15.65;12.18;;;;;;;11.25;83.25;102614.09;5026712;28;20180;-41
2023/04/17 08:28:20;;;;;;;15.15;13.55;;;;;;;11.93;82.00;102608.72;5019767;28;20247;-43
2023/04/17 08:30:46;;;;;;;20.17;15.27;;;;;;;12.01;82.73;102615.78;5029895;28;20168;-43
2023/04/17 08:33:12;;;;;;;22.40;17.60;;;;;;;12.16;82.59;102620.94;5011455;28;20260;-43
2023/04/17 08:35:38;;;;;;;22.88;18.33;;;;;;;11.96;83.70;102631.97;5025264;28;20643;-42
2023/04/17 08:38:03;;;;;;;26.15;18.88;;;;;;;11.21;85.29;102632.94;5021039;28;20175;-42
2023/04/17 08:40:29;;;;;;;22.65;19.25;;;;;;;11.26;86.80;102647.19;5030060;28;20164;-43
2023/04/17 08:42:55;;;;;;;23.27;19.70;;;;;;;11.66;87.99;102652.94;5028780;28;20192;-43
2023/04/17 08:45:23;;;;;;;29.30;21.48;;;;;;;11.38;88.82;102660.47;5029945;28;20199;-43
2023/04/17 08:47:48;;;;;;;27.52;21.70;;;;;;;12.31;89.08;102657.38;5030098;28;20176;-45
2023/04/17 08:50:16;;;;;;;28.38;21.13;;;;;;;12.09;86.96;102644.31;5018617;28;20257;-41
2023/04/17 08:52:47;;;;;;;25.80;19.60;;;;;;;12.34;85.60;102646.59;5024511;28;20180;-43
2023/04/17 08:55:16;;;;;;;26.10;18.50;;;;;;;12.88;83.22;102638.47;5030483;28;20610;-43
2023/04/17 08:58:05;;;;;;;22.33;15.85;;;;;;;11.22;80.95;102618.66;5030303;28;20160;-45
2023/04/17 09:00:33;;;;;;;20.77;16.55;;;;;;;12.02;81.27;102637.25;5027690;28;20179;-49
2023/04/17 09:03:00;;;;;;;21.27;15.75;;;;;;;12.39;79.71;102623.22;5015557;28;20188;-48
2023/04/17 09:05:32;;;;;;;19.85;15.93;;;;;;;12.53;77.73;102613.13;5016642;28;20529;-44
2023/04/17 09:08:10;;;;;;;18.88;13.95;;;;;;;12.15;76.93;102620.00;5009314;28;20161;-44
2023/04/17 09:10:48;;;;;;;22.20;13.07;;;;;;;12.28;74.49;102604.56;5025331;28;20175;-44
2023/04/17 09:13:20;;;;;;;20.23;12.98;;;;;;;11.76;73.87;102600.00;5008641;28;20275;-45
2023/04/17 09:16:01;;;;;;;18.13;11.70;;;;;;;11.84;72.91;102592.72;5012519;28;20179;-48
2023/04/17 09:18:29;;;;;;;13.85;11.63;;;;;;;12.36;71.42;102591.03;5019067;23;20216;-44
2023/04/17 09:20:57;;;;;;;14.15;11.73;;;;;;;12.47;70.49;102588.16;4995224;28;20669;-45
2023/04/17 09:23:24;;;;;;;14.90;11.30;;;;;;;11.88;68.33;102581.06;4996875;28;20177;-48
2023/04/17 09:26:11;;;;;;;17.38;11.95;;;;;;;12.11;66.71;102566.34;4995215;28;20521;-42
2023/04/17 09:28:42;;;;;;;12.13;10.88;;;;;;;11.43;66.44;102566.47;4987396;28;20271;-41
2023/04/17 09:31:17;;;;;;;15.13;12.20;;;;;;;12.36;67.14;102585.66;4997376;28;20205;-45
2023/04/17 09:33:56;;;;;;;14.40;11.90;;;;;;;12.50;65.61;102577.31;4999496;28;20185;-43
2023/04/17 09:36:22;;;;;;;15.38;12.20;;;;;;;11.86;66.25;102576.59;5000702;28;20192;-45
2023/04/17 09:38:48;;;;;;;17.30;11.27;;;;;;;11.90;64.96;102571.16;4994815;28;20204;-45
2023/04/17 09:41:38;;;;;;;14.30;9.93;;;;;;;11.62;63.27;102556.38;4997268;28;20228;-44
2023/04/17 09:44:05;;;;;;;15.68;9.45;;;;;;;11.67;62.08;102550.00;4997275;28;20238;-44
2023/04/17 09:46:34;;;;;;;17.05;11.48;;;;;;;11.87;62.45;102559.53;4998725;28;20191;-44
2023/04/17 09:49:17;;;;;;;12.85;8.65;;;;;;;11.72;61.84;102548.16;4998989;28;20553;-43
2023/04/17 09:51:43;;;;;;;13.82;8.68;;;;;;;11.68;61.06;102548.22;5004119;28;20185;-44
2023/04/17 09:54:10;;;;;;;13.82;8.57;;;;;;;12.34;60.99;102552.53;4991710;28;20696;-41
2023/04/17 09:56:36;;;;;;;13.07;7.60;;;;;;;12.31;60.90;102553.47;5001262;28;20188;-41
2023/04/17 09:59:05;;;;;;;15.68;8.35;;;;;;;12.63;59.73;102543.03;4981501;28;20197;-43
2023/04/17 10:01:32;;;;;;;11.30;8.13;;;;;;;11.12;60.28;102542.72;4999658;28;20279;-44
2023/04/17 10:03:58;;;;;;;11.05;7.95;;;;;;;10.63;61.57;102551.38;5003309;28;20287;-42
2023/04/17 10:06:28;;;;;;;14.38;9.05;;;;;;;11.23;62.09;102566.75;4997148;28;20177;-43
2023/04/17 10:08:54;;;;;;;11.25;8.38;;;;;;;11.56;61.83;102573.44;4972004;28;20251;-45
2023/04/17 10:11:24;;;;;;;12.77;8.60;;;;;;;11.49;62.08;102572.63;5000576;28;20181;-42
2023/04/17 10:14:26;;;;;;;10.63;7.85;;;;;;;11.55;61.53;102577.94;5000071;28;20536;-40
2023/04/17 10:16:53;;;;;;;12.85;8.65;;;;;;;11.49;61.82;102587.88;5000196;28;20235;-44
2023/04/17 10:19:30;;;;;;;10.90;8.48;;;;;;;12.03;62.59;102601.41;5013383;28;20209;-43
2023/04/17 10:22:14;;;;;;;12.63;10.00;;;;;;;11.57;62.58;102591.34;4995520;28;20203;-41
2023/04/17 10:24:43;;;;;;;14.27;9.27;;;;;;;11.91;64.18;102617.72;5013652;28;20550;-42
2023/04/17 10:27:25;;;;;;;11.38;8.98;;;;;;;11.77;63.85;102609.84;4995731;28;20212;-43
2023/04/17 10:30:12;;;;;;;16.65;9.95;;;;;;;11.08;65.58;102632.19;4995638;28;20284;-40
2023/04/17 10:32:43;;;;;;;14.73;10.05;;;;;;;11.45;65.62;102626.38;4995778;28;20165;-44
2023/04/17 10:35:14;;;;;;;14.00;9.93;;;;;;;11.33;66.11;102648.91;5013009;28;20155;-42
2023/04/17 10:37:46;;;;;;;11.93;8.93;;;;;;;11.69;66.21;102638.59;5013233;28;20188;-43
2023/04/17 10:40:21;;;;;;;15.98;9.52;;;;;;;11.91;65.97;102656.19;5012962;28;20346;-39
2023/04/17 10:43:10;;;;;;;14.30;9.50;;;;;;;11.70;65.71;102629.66;4995194;28;20690;-40
2023/04/17 10:46:13;;;;;;;13.45;9.43;;;;;;;11.42;65.97;102637.19;5013365;28;20568;-43
2023/04/17 10:48:46;;;;;;;15.95;10.57;;;;;;;11.41;67.73;102660.41;4995093;28;20262;-42
2023/04/17 10:51:25;;;;;;;14.23;9.70;;;;;;;11.18;67.87;102665.19;4995638;28;20183;-40
2023/04/17 10:54:05;;;;;;;16.50;10.30;;;;;;;10.44;69.74;102669.47;5012975;28;20184;-40
2023/04/17 10:56:43;;;;;;;15.77;10.10;;;;;;;10.72;70.53;102686.19;5012856;28;20172;-44
2023/04/17 10:59:11;;;;;;;11.57;9.32;;;;;;;11.32;69.40;102676.63;4995225;28;20607;-43
2023/04/17 11:01:37;;;;;;;12.10;8.60;;;;;;;11.87;68.12;102661.59;5011548;28;20254;-41
2023/04/17 11:04:03;;;;;;;10.70;8.80;;;;;;;11.48;67.36;102669.31;5012684;28;20181;-41
2023/04/17 11:06:32;;;;;;;16.10;8.40;;;;;;;10.96;66.14;102641.28;5012548;28;20200;-43
2023/04/17 11:08:59;;;;;;;14.13;8.02;;;;;;;11.64;65.21;102641.34;5012153;28;20280;-40
2023/04/17 11:11:25;;;;;;;13.57;7.93;;;;;;;11.34;63.08;102610.41;5012873;28;20188;-42
2023/04/17 11:13:51;;;;;;;12.40;7.47;;;;;;;11.78;62.47;102621.47;5011711;28;20203;-43